createdAt,value
2022-09-05T00:00:05.236Z,99440.06
2022-09-05T00:01:27.725Z,99446.13
2022-09-05T00:03:17.983Z,99448.72
2022-09-05T00:04:54.476Z,99452.13
2022-09-05T00:06:03.448Z,99457.59
2022-09-05T00:07:31.205Z,99463.50
2022-09-05T00:09:24.795Z,99455.09
2022-09-05T00:11:42.785Z,99476.31
2022-09-05T00:12:28.494Z,99462.25
2022-09-05T00:13:36.177Z,99474.69
2022-09-05T00:15:18.258Z,99479.31
2022-09-05T00:16:46.133Z,99477.22
2022-09-05T00:23:43.945Z,99478.03
2022-09-05T00:24:19.237Z,99477.59
2022-09-05T00:24:28.310Z,99480.84
2022-09-05T00:24:32.757Z,99477.09
2022-09-05T00:25:14.359Z,99486.31
2022-09-05T00:26:18.422Z,99490.94
2022-09-05T00:27:31.823Z,99473.13
2022-09-05T00:28:54.659Z,99480.97
2022-09-05T00:31:06.765Z,99478.84
2022-09-05T00:31:53.594Z,99478.84
2022-09-05T00:33:17.599Z,99479.09
2022-09-05T00:34:47.348Z,99474.50
2022-09-05T00:36:10.354Z,99481.47
2022-09-05T00:37:16.409Z,99477.72
2022-09-05T00:38:28.502Z,99478.72
2022-09-05T00:39:41.230Z,99469.50
2022-09-05T00:40:52.293Z,99478.53
2022-09-05T00:41:58.791Z,99480.66
2022-09-05T00:43:05.969Z,99473.97
2022-09-05T00:44:10.421Z,99480.47
2022-09-05T00:45:23.889Z,99474.56
2022-09-05T00:46:31.999Z,99467.81
2022-09-05T00:47:49.990Z,99474.78
2022-09-05T00:49:00.139Z,99470.25
2022-09-05T00:50:11.255Z,99462.78
2022-09-05T00:51:38.251Z,99471.63
2022-09-05T00:53:06.796Z,99461.66
2022-09-05T00:54:29.891Z,99467.56
2022-09-05T00:56:01.932Z,99455.94
2022-09-05T00:57:46.959Z,99476.97
2022-09-05T00:59:18.519Z,99477.53
2022-09-05T01:00:20.129Z,99466.59
2022-09-05T01:01:27.957Z,99472.91
2022-09-05T01:02:58.942Z,99470.69
2022-09-05T01:04:22.509Z,99465.00
2022-09-05T01:05:36.185Z,99462.19
2022-09-05T01:07:14.888Z,99464.63
2022-09-05T01:08:31.537Z,99468.59
2022-09-05T01:10:04.113Z,99453.44
2022-09-05T01:11:20.118Z,99473.56
2022-09-05T01:12:30.974Z,99467.13
2022-09-05T01:13:47.774Z,99457.88
2022-09-05T01:15:13.879Z,99465.34
2022-09-05T01:16:24.621Z,99466.97
2022-09-05T01:17:50.817Z,99470.47
2022-09-05T01:18:58.547Z,99473.91
2022-09-05T01:20:38.405Z,99465.34
2022-09-05T01:21:49.528Z,99479.84
2022-09-05T01:23:12.261Z,99464.31
2022-09-05T01:24:31.934Z,99471.19
2022-09-05T01:26:00.662Z,99467.94
2022-09-05T01:28:54.959Z,99470.84
2022-09-05T01:29:19.388Z,99461.94
2022-09-05T01:30:31.866Z,99464.44
2022-09-05T01:32:03.800Z,99465.16
2022-09-05T01:33:27.262Z,99464.25
2022-09-05T01:34:57.076Z,99451.66
2022-09-05T01:36:14.195Z,99474.47
2022-09-05T01:37:34.280Z,99461.13
2022-09-05T01:40:04.371Z,99469.38
2022-09-05T01:40:35.910Z,99451.88
2022-09-05T01:41:58.416Z,99470.66
2022-09-05T01:43:15.528Z,99477.72
2022-09-05T01:44:47.456Z,99474.72
2022-09-05T01:45:59.835Z,99467.41
2022-09-05T01:47:04.610Z,99469.94
2022-09-05T01:48:47.587Z,99468.91
2022-09-05T01:50:10.353Z,99469.13
2022-09-05T01:51:29.250Z,99461.44
2022-09-05T01:52:58.900Z,99466.22
2022-09-05T01:54:23.524Z,99461.13
2022-09-05T01:55:32.340Z,99468.16
2022-09-05T01:56:59.882Z,99463.88
2022-09-05T01:58:23.777Z,99462.09
2022-09-05T01:59:34.413Z,99462.09
2022-09-05T02:00:36.062Z,99465.34
2022-09-05T02:01:52.998Z,99465.34
2022-09-05T02:03:13.794Z,99460.22
2022-09-05T02:04:27.356Z,99457.31
2022-09-05T02:05:48.900Z,99459.66
2022-09-05T02:07:19.221Z,99456.75
2022-09-05T02:09:05.935Z,99458.22
2022-09-05T02:10:25.791Z,99468.91
2022-09-05T02:11:46.374Z,99458.22
2022-09-05T02:12:56.709Z,99466.31
2022-09-05T02:14:34.511Z,99448.00
2022-09-05T02:16:17.871Z,99467.03
2022-09-05T02:17:50.811Z,99469.97
2022-09-05T02:19:01.293Z,99466.78
2022-09-05T02:20:23.818Z,99471.19
2022-09-05T02:21:56.730Z,99460.63
2022-09-05T02:23:03.368Z,99461.38
2022-09-05T02:24:25.625Z,99471.31
2022-09-05T02:26:01.258Z,99471.66
2022-09-05T02:27:31.536Z,99468.91
2022-09-05T02:28:54.203Z,99472.38
2022-09-05T02:30:13.588Z,99468.91
2022-09-05T02:31:32.361Z,99471.03
2022-09-05T02:32:40.498Z,99472.06
2022-09-05T02:34:14.896Z,99476.50
2022-09-05T02:35:20.761Z,99478.47
2022-09-05T02:36:44.051Z,99479.34
2022-09-05T02:39:33.565Z,99486.06
2022-09-05T02:45:02.920Z,99486.00
2022-09-05T02:45:17.178Z,99486.97
2022-09-05T02:45:17.652Z,99489.88
2022-09-05T02:45:19.265Z,99489.28
2022-09-05T02:45:40.796Z,99487.38
2022-09-05T02:46:58.513Z,99483.13
2022-09-05T02:48:28.081Z,99479.75
2022-09-05T02:51:30.902Z,99480.66
2022-09-05T02:57:25.273Z,99476.38
2022-09-05T02:57:34.202Z,99481.69
2022-09-05T02:57:41.754Z,99472.50
2022-09-05T02:57:46.576Z,99480.00
2022-09-05T02:58:07.397Z,99478.44
2022-09-05T02:59:39.499Z,99471.94
2022-09-05T03:00:55.290Z,99467.81
2022-09-05T03:02:26.281Z,99471.63
2022-09-05T03:03:39.314Z,99479.19
2022-09-05T03:05:04.656Z,99475.19
2022-09-05T03:06:44.255Z,99478.84
2022-09-05T03:08:12.023Z,99477.44
2022-09-05T03:09:47.220Z,99474.69
2022-09-05T03:11:09.695Z,99478.41
2022-09-05T03:12:30.041Z,99473.56
2022-09-05T03:13:54.614Z,99474.94
2022-09-05T03:14:59.050Z,99476.31
2022-09-05T03:16:36.531Z,99470.16
2022-09-05T03:18:28.719Z,99478.25
2022-09-05T03:19:48.794Z,99477.63
2022-09-05T03:21:29.448Z,99488.06
2022-09-05T03:22:56.966Z,99477.16
2022-09-05T03:24:06.011Z,99479.59
2022-09-05T03:25:41.244Z,99481.22
2022-09-05T03:27:20.179Z,99489.38
2022-09-05T03:28:57.307Z,99491.09
2022-09-05T03:30:08.491Z,99486.66
2022-09-05T03:31:29.052Z,99494.19
2022-09-05T03:32:49.320Z,99493.19
2022-09-05T03:34:12.492Z,99494.34
2022-09-05T03:35:23.184Z,99492.25
2022-09-05T03:36:24.799Z,99491.75
2022-09-05T03:37:44.567Z,99493.28
2022-09-05T03:38:49.043Z,99494.16
2022-09-05T03:40:15.300Z,99494.75
2022-09-05T03:42:03.301Z,99498.78
2022-09-05T03:43:56.373Z,99508.81
2022-09-05T03:45:34.981Z,99515.25
2022-09-05T03:46:51.240Z,99510.38
2022-09-05T03:48:28.325Z,99504.09
2022-09-05T03:54:27.986Z,99510.63
2022-09-05T03:57:11.960Z,99512.81
2022-09-05T03:57:16.113Z,99509.91
2022-09-05T03:57:20.205Z,99508.03
2022-09-05T03:57:32.649Z,99507.38
2022-09-05T03:58:57.822Z,99506.88
2022-09-05T04:00:10.560Z,99515.91
2022-09-05T04:03:26.973Z,99516.22
2022-09-05T04:08:08.765Z,99521.19
2022-09-05T04:08:13.750Z,99523.19
2022-09-05T04:08:23.832Z,99523.63
2022-09-05T04:08:28.209Z,99514.59
2022-09-05T04:09:43.478Z,99533.94
2022-09-05T04:11:17.324Z,99534.22
2022-09-05T04:12:30.423Z,99535.13
2022-09-05T04:13:45.853Z,99534.09
2022-09-05T04:14:54.737Z,99536.00
2022-09-05T04:16:22.113Z,99537.31
2022-09-05T04:17:33.098Z,99546.94
2022-09-05T04:18:43.312Z,99527.59
2022-09-05T04:19:52.538Z,99545.09
2022-09-05T04:21:01.623Z,99542.50
2022-09-05T04:22:25.751Z,99542.50
2022-09-05T04:23:43.108Z,99542.97
2022-09-05T04:24:51.801Z,99519.31
2022-09-05T04:26:11.333Z,99541.19
2022-09-05T04:27:46.408Z,99548.66
2022-09-05T04:29:18.888Z,99541.19
2022-09-05T04:30:38.237Z,99553.19
2022-09-05T04:31:41.808Z,99547.94
2022-09-05T04:33:02.348Z,99544.63
2022-09-05T04:34:21.782Z,99555.97
2022-09-05T04:35:35.750Z,99556.78
2022-09-05T04:36:40.974Z,99545.34
2022-09-05T04:37:58.869Z,99554.81
2022-09-05T04:39:18.661Z,99553.91
2022-09-05T04:40:38.899Z,99556.78
2022-09-05T04:41:45.179Z,99556.59
2022-09-05T04:42:47.688Z,99561.78
2022-09-05T04:44:04.974Z,99563.66
2022-09-05T04:45:22.066Z,99566.72
2022-09-05T04:46:28.903Z,99559.66
2022-09-05T04:47:50.869Z,99561.34
2022-09-05T04:49:38.095Z,99566.28
2022-09-05T04:50:58.346Z,99548.53
2022-09-05T04:52:34.933Z,99566.91
2022-09-05T04:54:13.619Z,99571.06
2022-09-05T04:55:27.313Z,99552.75
2022-09-05T04:56:35.120Z,99570.91
2022-09-05T04:57:51.347Z,99573.91
2022-09-05T05:01:28.216Z,99556.22
2022-09-05T05:05:52.192Z,99570.97
2022-09-05T05:06:08.357Z,99578.94
2022-09-05T05:06:17.107Z,99580.22
2022-09-05T05:06:18.514Z,99573.91
2022-09-05T05:06:48.143Z,99579.78
2022-09-05T05:07:52.994Z,99584.59
2022-09-05T05:09:18.981Z,99574.25
2022-09-05T05:14:36.682Z,99585.00
2022-09-05T05:17:59.036Z,99580.41
2022-09-05T05:18:07.794Z,99575.16
2022-09-05T05:18:12.649Z,99570.91
2022-09-05T05:18:14.993Z,99589.19
2022-09-05T05:18:57.863Z,99577.66
2022-09-05T05:20:41.776Z,99577.75
2022-09-05T05:21:49.476Z,99588.69
2022-09-05T05:23:07.507Z,99590.47
2022-09-05T05:24:17.831Z,99586.94
2022-09-05T05:25:24.212Z,99592.03
2022-09-05T05:26:37.129Z,99577.66
2022-09-05T05:27:50.159Z,99578.91
2022-09-05T05:29:19.431Z,99593.91
2022-09-05T05:30:28.424Z,99578.31
2022-09-05T05:31:32.802Z,99587.22
2022-09-05T05:32:44.846Z,99592.75
2022-09-05T05:33:53.283Z,99588.69
2022-09-05T05:35:02.072Z,99590.81
2022-09-05T05:36:08.318Z,99572.50
2022-09-05T05:37:22.289Z,99600.34
2022-09-05T05:38:27.212Z,99581.84
2022-09-05T05:39:31.129Z,99600.00
2022-09-05T05:40:37.613Z,99599.19
2022-09-05T05:41:55.133Z,99600.00
2022-09-05T05:43:15.369Z,99600.66
2022-09-05T05:44:26.421Z,99587.50
2022-09-05T05:45:31.044Z,99602.72
2022-09-05T05:46:40.452Z,99603.03
2022-09-05T05:47:45.041Z,99599.63
2022-09-05T05:48:57.379Z,99581.59
2022-09-05T05:50:11.692Z,99605.69
2022-09-05T05:51:36.442Z,99613.50
2022-09-05T05:53:07.692Z,99611.38
2022-09-05T05:54:37.347Z,99616.44
2022-09-05T05:56:02.951Z,99616.38
2022-09-05T05:57:26.618Z,99614.13
2022-09-05T05:58:33.128Z,99619.56
2022-09-05T05:59:56.268Z,99619.56
2022-09-05T06:01:31.618Z,99618.50
2022-09-05T06:03:26.594Z,99625.25
2022-09-05T06:04:54.010Z,99624.44
2022-09-05T06:05:59.257Z,99620.63
2022-09-05T06:07:18.902Z,99622.00
2022-09-05T06:13:48.810Z,99627.63
2022-09-05T06:14:55.647Z,99625.28
2022-09-05T06:14:59.171Z,99624.03
2022-09-05T06:15:09.023Z,99623.94
2022-09-05T06:16:20.858Z,99628.59
2022-09-05T06:17:37.815Z,99626.00
2022-09-05T06:19:04.428Z,99626.38
2022-09-05T06:21:51.106Z,99632.94
2022-09-05T06:22:20.568Z,99631.28
2022-09-05T06:23:41.925Z,99629.06
2022-09-05T06:25:11.061Z,99633.72
2022-09-05T06:27:09.948Z,99635.00
2022-09-05T06:28:27.562Z,99636.66
2022-09-05T06:30:14.621Z,99633.53
2022-09-05T06:31:35.093Z,99631.44
2022-09-05T06:32:58.209Z,99634.66
2022-09-05T06:34:33.472Z,99634.19
2022-09-05T06:36:11.424Z,99640.19
2022-09-05T06:37:46.024Z,99626.75
2022-09-05T06:39:14.306Z,99637.81
2022-09-05T06:40:28.020Z,99640.28
2022-09-05T06:41:53.443Z,99643.53
2022-09-05T06:43:19.778Z,99642.72
2022-09-05T06:44:52.607Z,99644.34
2022-09-05T06:46:02.697Z,99645.19
2022-09-05T06:47:33.284Z,99645.22
2022-09-05T06:49:28.589Z,99643.31
2022-09-05T06:50:23.796Z,99644.09
2022-09-05T06:51:45.010Z,99644.63
2022-09-05T06:53:19.395Z,99645.44
2022-09-05T06:54:32.208Z,99650.25
2022-09-05T06:55:44.382Z,99653.84
2022-09-05T06:56:48.814Z,99646.03
2022-09-05T06:58:09.187Z,99640.91
2022-09-05T06:59:58.282Z,99645.72
2022-09-05T07:01:02.656Z,99648.41
2022-09-05T07:02:59.439Z,99649.22
2022-09-05T07:05:36.955Z,99654.34
2022-09-05T07:07:01.684Z,99657.00
2022-09-05T07:08:36.297Z,99660.81
2022-09-05T07:10:00.567Z,99655.66
2022-09-05T07:11:15.968Z,99664.00
2022-09-05T07:12:33.013Z,99662.94
2022-09-05T07:13:47.368Z,99666.97
2022-09-05T07:15:08.420Z,99663.44
2022-09-05T07:16:26.670Z,99664.22
2022-09-05T07:18:09.423Z,99666.59
2022-09-05T07:19:28.224Z,99667.13
2022-09-05T07:20:47.900Z,99662.22
2022-09-05T07:22:00.948Z,99662.97
2022-09-05T07:24:06.564Z,99667.78
2022-09-05T07:25:18.198Z,99656.69
2022-09-05T07:26:51.879Z,99666.34
2022-09-05T07:28:27.121Z,99660.34
2022-09-05T07:29:22.777Z,99647.00
2022-09-05T07:30:24.882Z,99662.66
2022-09-05T07:31:37.421Z,99667.00
2022-09-05T07:32:45.566Z,99658.50
2022-09-05T07:33:48.615Z,99656.31
2022-09-05T07:34:52.032Z,99653.75
2022-09-05T07:35:58.159Z,99655.06
2022-09-05T07:37:14.855Z,99662.88
2022-09-05T07:38:52.398Z,99654.91
2022-09-05T07:39:55.488Z,99662.84
2022-09-05T07:41:18.245Z,99656.97
2022-09-05T07:42:43.317Z,99662.63
2022-09-05T07:43:48.788Z,99652.50
2022-09-05T07:44:56.666Z,99654.72
2022-09-05T07:46:11.646Z,99658.06
2022-09-05T07:47:25.565Z,99654.88
2022-09-05T07:48:34.571Z,99652.84
2022-09-05T07:49:56.596Z,99652.72
2022-09-05T07:54:36.686Z,99653.16
2022-09-05T07:56:47.440Z,99652.16
2022-09-05T07:56:52.164Z,99649.28
2022-09-05T07:57:03.848Z,99649.63
2022-09-05T07:58:19.921Z,99638.38
2022-09-05T07:59:25.807Z,99641.94
2022-09-05T08:00:30.089Z,99642.28
2022-09-05T08:01:32.972Z,99615.44
2022-09-05T08:02:46.937Z,99641.75
2022-09-05T08:03:56.066Z,99625.50
2022-09-05T08:05:04.567Z,99641.31
2022-09-05T08:06:13.032Z,99646.28
2022-09-05T08:07:46.879Z,99641.94
2022-09-05T08:09:21.372Z,99630.22
2022-09-05T08:11:24.657Z,99641.72
2022-09-05T08:12:02.632Z,99630.13
2022-09-05T08:13:24.425Z,99628.47
2022-09-05T08:14:45.857Z,99633.06
2022-09-05T08:16:10.398Z,99641.31
2022-09-05T08:17:19.879Z,99635.41
2022-09-05T08:18:50.325Z,99631.00
2022-09-05T08:20:08.949Z,99625.50
2022-09-05T08:21:14.221Z,99625.56
2022-09-05T08:22:22.380Z,99634.81
2022-09-05T08:23:39.388Z,99628.38
2022-09-05T08:25:27.624Z,99628.41
2022-09-05T08:26:56.308Z,99621.81
2022-09-05T08:28:24.122Z,99624.66
2022-09-05T08:29:30.909Z,99617.75
2022-09-05T08:30:59.888Z,99625.75
2022-09-05T08:32:09.059Z,99627.56
2022-09-05T08:33:21.540Z,99607.09
2022-09-05T08:34:44.140Z,99619.25
2022-09-05T08:35:59.383Z,99616.09
2022-09-05T08:37:03.862Z,99622.78
2022-09-05T08:38:08.272Z,99623.25
2022-09-05T08:39:12.316Z,99620.53
2022-09-05T08:40:27.639Z,99598.38
2022-09-05T08:41:56.141Z,99615.47
2022-09-05T08:46:36.086Z,99622.22
2022-09-05T08:46:41.284Z,99619.13
2022-09-05T08:46:51.069Z,99627.03
2022-09-05T08:48:11.840Z,99609.31
2022-09-05T08:49:46.316Z,99606.50
2022-09-05T08:51:19.055Z,99612.41
2022-09-05T08:52:32.703Z,99613.69
2022-09-05T08:53:53.034Z,99606.41
2022-09-05T08:55:12.526Z,99616.53
2022-09-05T08:56:48.151Z,99610.06
2022-09-05T08:58:02.472Z,99606.50
2022-09-05T09:00:12.038Z,99616.06
2022-09-05T09:01:52.953Z,99608.19
2022-09-05T09:03:19.483Z,99606.81
2022-09-05T09:05:00.945Z,99608.50
2022-09-05T09:06:20.910Z,99602.41
2022-09-05T09:07:50.717Z,99606.13
2022-09-05T09:09:18.571Z,99601.44
2022-09-05T09:10:48.042Z,99599.06
2022-09-05T09:12:14.639Z,99589.97
2022-09-05T09:13:54.482Z,99596.75
2022-09-05T09:15:01.067Z,99591.06
2022-09-05T09:16:06.789Z,99590.63
2022-09-05T09:17:33.474Z,99590.75
2022-09-05T09:18:50.166Z,99588.81
2022-09-05T09:20:10.380Z,99584.91
2022-09-05T09:21:36.714Z,99589.34
2022-09-05T09:22:44.140Z,99589.94
2022-09-05T09:24:05.892Z,99585.59
2022-09-05T09:25:16.852Z,99587.13
2022-09-05T09:26:27.861Z,99591.69
2022-09-05T09:28:48.673Z,99590.97
2022-09-05T09:29:17.738Z,99583.09
2022-09-05T09:30:20.592Z,99592.38
2022-09-05T09:31:54.567Z,99592.72
2022-09-05T09:33:02.075Z,99593.03
2022-09-05T09:34:23.228Z,99597.09
2022-09-05T09:35:36.887Z,99589.84
2022-09-05T09:37:31.976Z,99592.13
2022-09-05T09:39:11.695Z,99588.25
2022-09-05T09:41:00.551Z,99597.75
2022-09-05T09:42:33.202Z,99598.78
2022-09-05T09:44:06.926Z,99593.22
2022-09-05T09:45:22.554Z,99592.97
2022-09-05T09:46:47.791Z,99591.25
2022-09-05T09:48:09.723Z,99592.75
2022-09-05T09:49:52.597Z,99587.75
2022-09-05T09:51:12.474Z,99595.72
2022-09-05T09:52:26.312Z,99589.72
2022-09-05T09:53:30.717Z,99592.25
2022-09-05T09:54:40.052Z,99597.38
2022-09-05T09:56:00.364Z,99591.91
2022-09-05T09:57:24.566Z,99594.00
2022-09-05T09:58:26.489Z,99596.16
2022-09-05T09:59:54.253Z,99588.25
2022-09-05T10:01:02.373Z,99589.38
2022-09-05T10:04:31.359Z,99588.41
2022-09-05T10:10:35.580Z,99597.88
2022-09-05T10:10:35.947Z,99589.41
2022-09-05T10:10:51.341Z,99588.41
2022-09-05T10:10:51.904Z,99593.09
2022-09-05T10:11:18.870Z,99586.69
2022-09-05T10:12:35.530Z,99593.56
2022-09-05T10:13:55.934Z,99591.84
2022-09-05T10:15:15.153Z,99592.47
2022-09-05T10:16:27.160Z,99597.63
2022-09-05T10:17:35.953Z,99599.41
2022-09-05T10:18:46.898Z,99596.66
2022-09-05T10:20:29.188Z,99597.53
2022-09-05T10:23:44.792Z,99589.38
2022-09-05T10:24:52.843Z,99591.59
2022-09-05T10:26:24.672Z,99592.41
2022-09-05T10:27:57.432Z,99591.97
2022-09-05T10:29:15.710Z,99589.69
2022-09-05T10:30:50.320Z,99590.75
2022-09-05T10:35:04.823Z,99587.28
2022-09-05T10:35:10.272Z,99585.03
2022-09-05T10:35:21.071Z,99585.31
2022-09-05T10:36:31.933Z,99580.88
2022-09-05T10:37:42.727Z,99581.56
2022-09-05T10:38:45.850Z,99578.47
2022-09-05T10:39:53.340Z,99575.41
2022-09-05T10:41:21.428Z,99579.31
2022-09-05T10:43:00.740Z,99578.78
2022-09-05T10:44:06.360Z,99563.41
2022-09-05T10:45:49.613Z,99575.50
2022-09-05T10:47:15.892Z,99573.97
2022-09-05T10:48:54.454Z,99570.88
2022-09-05T10:50:19.357Z,99567.59
2022-09-05T10:51:43.858Z,99570.31
2022-09-05T10:53:22.457Z,99568.94
2022-09-05T10:55:14.144Z,99563.44
2022-09-05T10:56:23.736Z,99563.84
2022-09-05T10:57:58.913Z,99566.66
2022-09-05T11:02:24.629Z,99552.84
2022-09-05T11:02:29.252Z,99565.97
2022-09-05T11:02:36.727Z,99564.94
2022-09-05T11:03:51.720Z,99553.28
2022-09-05T11:05:05.778Z,99550.22
2022-09-05T11:06:16.605Z,99539.97
2022-09-05T11:08:16.828Z,99547.06
2022-09-05T11:09:18.810Z,99550.88
2022-09-05T11:10:29.117Z,99554.28
2022-09-05T11:11:46.223Z,99549.59
2022-09-05T11:13:26.896Z,99540.72
2022-09-05T11:14:42.303Z,99547.59
2022-09-05T11:16:07.446Z,99539.69
2022-09-05T11:17:42.369Z,99539.50
2022-09-05T11:19:13.390Z,99539.34
2022-09-05T11:20:22.373Z,99539.56
2022-09-05T11:21:46.241Z,99530.47
2022-09-05T11:22:52.913Z,99528.44
2022-09-05T11:23:59.386Z,99536.28
2022-09-05T11:25:04.714Z,99525.59
2022-09-05T11:26:17.328Z,99524.72
2022-09-05T11:27:40.442Z,99517.88
2022-09-05T11:29:00.717Z,99513.75
2022-09-05T11:30:29.234Z,99517.84
2022-09-05T11:32:40.080Z,99517.13
2022-09-05T11:37:23.848Z,99510.34
2022-09-05T11:39:58.054Z,99506.66
2022-09-05T11:40:06.172Z,99502.44
2022-09-05T11:40:08.821Z,99494.00
2022-09-05T11:40:29.123Z,99508.91
2022-09-05T11:41:39.679Z,99503.56
2022-09-05T11:42:48.958Z,99501.53
2022-09-05T11:44:25.222Z,99502.09
2022-09-05T11:46:02.717Z,99503.31
2022-09-05T11:47:28.421Z,99496.97
2022-09-05T11:48:44.574Z,99499.47
2022-09-05T11:50:10.606Z,99494.78
2022-09-05T11:51:40.223Z,99484.53
2022-09-05T11:53:03.985Z,99490.69
2022-09-05T11:54:44.464Z,99482.63
2022-09-05T11:56:27.991Z,99486.63
2022-09-05T11:57:39.302Z,99477.59
2022-09-05T11:59:05.248Z,99480.63
2022-09-05T12:00:34.237Z,99463.19
2022-09-05T12:03:59.844Z,99485.47
2022-09-05T12:06:50.689Z,99478.19
2022-09-05T12:08:35.533Z,99484.41
2022-09-05T12:09:50.354Z,99475.31
2022-09-05T12:11:29.766Z,99482.75
2022-09-05T12:13:07.765Z,99478.59
2022-09-05T12:14:21.234Z,99482.94
2022-09-05T12:15:34.448Z,99475.06
2022-09-05T12:16:48.697Z,99471.88
2022-09-05T12:17:56.350Z,99469.72
2022-09-05T12:19:22.979Z,99469.06
2022-09-05T12:20:43.551Z,99464.28
2022-09-05T12:22:09.138Z,99461.56
2022-09-05T12:24:13.492Z,99460.41
2022-09-05T12:25:26.983Z,99460.19
2022-09-05T12:27:39.892Z,99460.25
2022-09-05T12:29:32.587Z,99452.47
2022-09-05T12:30:04.697Z,99461.00
2022-09-05T12:32:30.967Z,99456.47
2022-09-05T12:36:01.666Z,99453.31
2022-09-05T12:36:02.466Z,99456.94
2022-09-05T12:40:54.351Z,99441.19
2022-09-05T12:40:55.473Z,99446.06
2022-09-05T12:40:57.036Z,99448.84
2022-09-05T12:41:35.369Z,99481.84
2022-09-05T12:41:44.939Z,99432.66
2022-09-05T12:42:10.356Z,99484.25
2022-09-05T12:42:48.573Z,99443.00
2022-09-05T12:44:37.739Z,99445.66
2022-09-05T12:45:48.061Z,99446.94
2022-09-05T12:47:18.868Z,99438.69
2022-09-05T12:49:06.915Z,99446.25
2022-09-05T12:50:19.165Z,99448.88
2022-09-05T12:51:46.992Z,99447.69
2022-09-05T12:53:02.200Z,99439.56
2022-09-05T12:54:32.637Z,99428.56
2022-09-05T12:56:28.230Z,99444.28
2022-09-05T13:02:53.340Z,99432.19
2022-09-05T13:02:57.295Z,99423.06
2022-09-05T13:03:11.191Z,99435.41
2022-09-05T13:03:11.663Z,99435.41
2022-09-05T13:03:26.863Z,99434.28
2022-09-05T13:04:51.344Z,99437.16
2022-09-05T13:06:19.396Z,99437.31
2022-09-05T13:07:39.195Z,99435.53
2022-09-05T13:08:59.078Z,99443.25
2022-09-05T13:14:47.836Z,99427.91
2022-09-05T13:14:54.123Z,99432.88
2022-09-05T13:14:56.094Z,99425.34
2022-09-05T13:15:23.177Z,99434.00
2022-09-05T13:16:29.642Z,99419.88
2022-09-05T13:17:45.163Z,99437.78
2022-09-05T13:18:47.774Z,99439.09
2022-09-05T13:19:51.883Z,99435.22
2022-09-05T13:20:56.366Z,99434.59
2022-09-05T13:22:02.424Z,99434.09
2022-09-05T13:23:24.301Z,99430.66
2022-09-05T13:24:35.418Z,99435.44
2022-09-05T13:25:44.737Z,99434.47
2022-09-05T13:27:25.151Z,99431.75
2022-09-05T13:28:43.223Z,99425.22
2022-09-05T13:32:16.243Z,99430.34
2022-09-05T13:37:58.750Z,99441.59
2022-09-05T13:38:03.338Z,99437.63
2022-09-05T13:38:05.635Z,99431.22
2022-09-05T13:38:11.968Z,99440.34
2022-09-05T13:38:19.873Z,99438.25
2022-09-05T13:38:59.163Z,99445.06
2022-09-05T13:40:10.067Z,99442.66
2022-09-05T13:41:27.214Z,99438.78
2022-09-05T13:42:40.775Z,99430.00
2022-09-05T13:43:44.581Z,99439.44
2022-09-05T13:44:49.823Z,99439.91
2022-09-05T13:46:17.383Z,99443.78
2022-09-05T13:47:51.088Z,99440.25
2022-09-05T13:50:39.232Z,99444.25
2022-09-05T13:51:51.203Z,99437.69
2022-09-05T13:53:08.062Z,99440.47
2022-09-05T13:54:38.949Z,99433.44
2022-09-05T13:56:03.079Z,99428.31
2022-09-05T13:57:32.568Z,99435.50
2022-09-05T13:58:56.517Z,99429.56
2022-09-05T14:00:27.600Z,99441.59
2022-09-05T14:02:24.940Z,99437.75
2022-09-05T14:03:40.491Z,99442.88
2022-09-05T14:05:11.124Z,99441.13
2022-09-05T14:06:46.476Z,99441.56
2022-09-05T14:07:53.621Z,99432.44
2022-09-05T14:09:38.510Z,99428.22
2022-09-05T14:11:07.354Z,99438.97
2022-09-05T14:12:29.904Z,99438.16
2022-09-05T14:13:55.415Z,99434.47
2022-09-05T14:15:15.709Z,99423.56
2022-09-05T14:16:26.189Z,99426.59
2022-09-05T14:17:52.279Z,99436.22
2022-09-05T14:19:15.257Z,99431.31
2022-09-05T14:20:36.327Z,99419.94
2022-09-05T14:21:40.380Z,99429.72
2022-09-05T14:23:10.080Z,99430.50
2022-09-05T14:24:27.812Z,99433.44
2022-09-05T14:25:37.681Z,99425.09
2022-09-05T14:26:46.849Z,99427.53
2022-09-05T14:27:50.614Z,99438.56
2022-09-05T14:29:14.293Z,99438.88
2022-09-05T14:30:46.286Z,99437.09
2022-09-05T14:37:35.439Z,99436.31
2022-09-05T14:37:40.127Z,99443.38
2022-09-05T14:37:41.621Z,99434.53
2022-09-05T14:37:50.570Z,99433.44
2022-09-05T14:38:48.975Z,99430.88
2022-09-05T14:40:32.479Z,99441.09
2022-09-05T14:42:09.441Z,99432.88
2022-09-05T14:43:35.040Z,99436.06
2022-09-05T14:44:59.804Z,99436.44
2022-09-05T14:46:35.295Z,99429.06
2022-09-05T14:47:58.952Z,99428.00
2022-09-05T14:49:37.804Z,99432.94
2022-09-05T14:51:03.785Z,99434.66
2022-09-05T14:52:23.595Z,99427.81
2022-09-05T14:57:23.585Z,99432.97
2022-09-05T15:02:38.074Z,99420.13
2022-09-05T15:02:42.069Z,99424.09
2022-09-05T15:02:49.443Z,99431.84
2022-09-05T15:02:50.547Z,99433.72
2022-09-05T15:05:21.380Z,99432.66
2022-09-05T15:06:28.220Z,99430.66
2022-09-05T15:07:44.415Z,99435.31
2022-09-05T15:12:12.644Z,99435.06
2022-09-05T15:12:15.382Z,99445.53
2022-09-05T15:12:24.136Z,99438.25
2022-09-05T15:13:06.239Z,99432.44
2022-09-05T15:14:11.265Z,99438.25
2022-09-05T15:15:29.365Z,99438.09
2022-09-05T15:16:35.710Z,99436.97
2022-09-05T15:17:38.603Z,99431.03
2022-09-05T15:18:46.312Z,99432.63
2022-09-05T15:20:06.915Z,99417.38
2022-09-05T15:21:33.277Z,99436.63
2022-09-05T15:22:43.099Z,99438.53
2022-09-05T15:23:59.456Z,99438.34
2022-09-05T15:25:12.104Z,99427.94
2022-09-05T15:26:25.629Z,99433.44
2022-09-05T15:27:29.723Z,99436.47
2022-09-05T15:28:34.073Z,99435.56
2022-09-05T15:29:35.799Z,99431.38
2022-09-05T15:30:37.535Z,99441.25
2022-09-05T15:31:39.818Z,99443.41
2022-09-05T15:32:44.574Z,99445.28
2022-09-05T15:33:51.186Z,99445.50
2022-09-05T15:34:56.299Z,99445.72
2022-09-05T15:35:59.917Z,99446.16
2022-09-05T15:37:08.898Z,99444.72
2022-09-05T15:38:54.429Z,99444.56
2022-09-05T15:40:23.925Z,99453.66
2022-09-05T15:41:29.768Z,99447.34
2022-09-05T15:42:34.368Z,99447.34
2022-09-05T15:43:58.447Z,99446.34
2022-09-05T15:45:10.986Z,99439.25
2022-09-05T15:46:13.731Z,99448.69
2022-09-05T15:47:24.523Z,99453.91
2022-09-05T15:48:34.662Z,99450.59
2022-09-05T15:49:49.060Z,99445.75
2022-09-05T15:50:55.207Z,99444.97
2022-09-05T15:52:01.534Z,99451.59
2022-09-05T15:53:03.917Z,99447.88
2022-09-05T15:54:05.840Z,99448.97
2022-09-05T15:55:16.203Z,99448.81
2022-09-05T15:56:20.486Z,99452.63
2022-09-05T15:57:34.454Z,99449.16
2022-09-05T15:58:53.921Z,99440.72
2022-09-05T16:00:00.245Z,99451.47
2022-09-05T16:01:13.151Z,99453.16
2022-09-05T16:02:39.591Z,99453.16
2022-09-05T16:06:08.362Z,99454.34
2022-09-05T16:10:30.441Z,99452.75
2022-09-05T16:10:33.453Z,99448.72
2022-09-05T16:10:40.129Z,99433.34
2022-09-05T16:10:40.810Z,99439.78
2022-09-05T16:12:08.847Z,99440.28
2022-09-05T16:12:56.542Z,99446.16
2022-09-05T16:14:23.262Z,99451.16
2022-09-05T16:18:58.584Z,99442.91
2022-09-05T16:23:15.046Z,99446.34
2022-09-05T16:23:28.822Z,99443.13
2022-09-05T16:23:29.701Z,99445.25
2022-09-05T16:23:29.702Z,99447.44
2022-09-05T16:23:39.639Z,99446.34
2022-09-05T16:24:59.492Z,99445.81
2022-09-05T16:26:11.752Z,99455.84
2022-09-05T16:27:34.954Z,99449.41
2022-09-05T16:28:53.810Z,99454.69